Shannondale, Missouri
Current Conditions -  °F | °C
As of 3:58 AM on Sunday 26 Oct 2014 (Local Time) from KTBN Reporting Station
Clear Clear  
Wind Chill: 55°   Ceiling: Unl
Heat Index: 55°   Visibility: 8mi
Dew Point: 55°   Wind: 1mph
Humidity: 100%   Direction: 170°S
Pressure: 30.01"   Gusts: NA
Location:  37.5023°N, 91.4546°W
Report Text: KTBN 260858Z AUTO 17001KT 8SM CLR 13/13 A3001 RMK AO2 SLP158 T01280128 58002
Loading
Personal Weather Stations






























Interactive Weather Map
Tropical Storm Tracking
New forecast layout! Learn more

10-Day Weather Forecast

Advertisements
Track Severe Weather on mobile